Søk
Bilder fra klubbens virksomhet
Tooltip
Soloflygninger
Tooltip
Espen Wiik har fløyet solo
Tooltip
Rashad Habib har fløyet solo
Tooltip
David Froholt har fløyet solo
Tooltip
Leif Olsen er pilot
  • Tilfeldig bilde
     
    Opplastet 12-05-2008
    Opplastet 04-09-2011
    Opplastet 21-05-2008
     
  • Siste bilde
     
    Opplastet 27-07-2018
    Opplastet 05-06-2018
    Opplastet 31-10-2017
     
«StartForrige1234NesteSiste»
Side 1 av 4
 
 
METAR
2021/09/17 06:50 ENCN 170650Z 03006KT 9999 BKN028 09/06 Q1018
TAF
2021/09/17 06:36 TAF TAF ENCN 170500Z 1706/1715 03010KT 9999 FEW020 BKN040 TEMPO 1711/1712 05015G25KT
LN-KFK
Operativ VFR-natt
VFR dag
06:21 - 20:22
Brannvakt
Inaktiv
Banner
Banner
Banner
Banner
Banner